createdAt,value
2018-12-07T00:00:48.008Z,1006.37
2018-12-07T00:01:48.034Z,1006.36
2018-12-07T00:02:48.060Z,1006.35
2018-12-07T00:03:48.084Z,1006.36
2018-12-07T00:04:48.110Z,1006.34
2018-12-07T00:05:48.136Z,1006.29
2018-12-07T00:06:48.163Z,1006.28
2018-12-07T00:07:48.191Z,1006.35
2018-12-07T00:08:48.213Z,1006.35
2018-12-07T00:09:48.242Z,1006.28
2018-12-07T00:10:48.266Z,1006.32
2018-12-07T00:11:48.293Z,1006.33
2018-12-07T00:12:48.317Z,1006.29
2018-12-07T00:13:48.347Z,1006.29
2018-12-07T00:14:48.372Z,1006.17
2018-12-07T00:15:48.395Z,1006.29
2018-12-07T00:16:48.424Z,1006.22
2018-12-07T00:17:48.447Z,1006.22
2018-12-07T00:18:48.477Z,1006.18
2018-12-07T00:19:48.507Z,1006.13
2018-12-07T00:20:48.525Z,1006.19
2018-12-07T00:21:48.553Z,1006.15
2018-12-07T00:22:48.580Z,1006.22
2018-12-07T00:23:48.606Z,1006.20
2018-12-07T00:24:48.628Z,1006.20
2018-12-07T00:25:48.654Z,1006.13
2018-12-07T00:26:48.682Z,1006.06
2018-12-07T00:27:48.709Z,1006.14
2018-12-07T00:28:48.735Z,1006.11
2018-12-07T00:29:48.759Z,1006.14
2018-12-07T00:30:48.784Z,1006.11
2018-12-07T00:31:48.816Z,1006.12
2018-12-07T00:32:48.837Z,1006.09
2018-12-07T00:33:48.866Z,1006.09
2018-12-07T00:34:48.889Z,1006.07
2018-12-07T00:35:48.915Z,1006.03
2018-12-07T00:36:48.943Z,1006.02
2018-12-07T00:37:48.967Z,1006.06
2018-12-07T00:38:48.997Z,1006.02
2018-12-07T00:39:49.022Z,1006.02
2018-12-07T00:40:49.045Z,1006.01
2018-12-07T00:41:49.073Z,1005.98
2018-12-07T00:42:49.100Z,1005.95
2018-12-07T00:43:49.126Z,1005.97
2018-12-07T00:44:49.151Z,1005.90
2018-12-07T00:45:49.181Z,1005.93
2018-12-07T00:46:49.206Z,1005.95
2018-12-07T00:47:49.229Z,1005.87
2018-12-07T00:48:49.254Z,1005.93
2018-12-07T00:49:49.280Z,1005.91
2018-12-07T00:50:49.327Z,1005.94
2018-12-07T00:51:49.333Z,1005.95
2018-12-07T00:52:49.356Z,1005.94
2018-12-07T00:53:49.384Z,1005.97
2018-12-07T00:54:49.410Z,1005.92
2018-12-07T00:55:49.436Z,1005.91
2018-12-07T00:56:49.459Z,1005.93
2018-12-07T00:57:49.486Z,1005.88
2018-12-07T00:58:49.512Z,1005.85
2018-12-07T00:59:49.537Z,1005.79
2018-12-07T01:00:49.566Z,1005.84
2018-12-07T01:01:49.625Z,1005.77
2018-12-07T01:02:49.619Z,1005.72
2018-12-07T01:03:49.649Z,1005.74
2018-12-07T01:04:49.669Z,1005.75
2018-12-07T01:05:49.696Z,1005.64
2018-12-07T01:06:49.718Z,1005.65
2018-12-07T01:07:49.747Z,1005.68
2018-12-07T01:08:49.770Z,1005.68
2018-12-07T01:09:49.796Z,1005.70
2018-12-07T01:10:49.822Z,1005.66
2018-12-07T01:11:49.848Z,1005.59
2018-12-07T01:12:49.877Z,1005.56
2018-12-07T01:13:49.902Z,1005.62
2018-12-07T01:14:49.926Z,1005.62
2018-12-07T01:15:49.954Z,1005.53
2018-12-07T01:16:49.976Z,1005.58
2018-12-07T01:17:50.002Z,1005.52
2018-12-07T01:18:50.030Z,1005.53
2018-12-07T01:19:50.055Z,1005.50
2018-12-07T01:20:50.083Z,1005.46
2018-12-07T01:21:50.109Z,1005.51
2018-12-07T01:22:50.133Z,1005.47
2018-12-07T01:23:50.161Z,1005.48
2018-12-07T01:24:50.189Z,1005.47
2018-12-07T01:25:50.209Z,1005.46
2018-12-07T01:26:50.237Z,1005.36
2018-12-07T01:27:50.267Z,1005.39
2018-12-07T01:28:50.290Z,1005.39
2018-12-07T01:29:50.313Z,1005.37
2018-12-07T01:30:50.343Z,1005.34
2018-12-07T01:31:50.368Z,1005.29
2018-12-07T01:32:50.392Z,1005.35
2018-12-07T01:33:50.418Z,1005.31
2018-12-07T01:34:50.444Z,1005.29
2018-12-07T01:35:50.473Z,1005.36
2018-12-07T01:36:50.548Z,1005.33
2018-12-07T01:37:50.523Z,1005.27
2018-12-07T01:38:50.549Z,1005.28
2018-12-07T01:39:50.575Z,1005.26
2018-12-07T01:40:50.601Z,1005.29
2018-12-07T01:41:50.623Z,1005.31
2018-12-07T01:42:50.652Z,1005.25
2018-12-07T01:43:50.676Z,1005.31
2018-12-07T01:44:50.701Z,1005.26
2018-12-07T01:45:50.728Z,1005.30
2018-12-07T01:46:50.756Z,1005.24
2018-12-07T01:47:50.780Z,1005.26
2018-12-07T01:48:50.805Z,1005.23
2018-12-07T01:49:50.833Z,1005.23
2018-12-07T01:50:50.860Z,1005.26
2018-12-07T01:51:50.889Z,1005.28
2018-12-07T01:52:50.911Z,1005.25
2018-12-07T01:53:50.937Z,1005.23
2018-12-07T01:54:50.962Z,1005.24
2018-12-07T01:55:50.989Z,1005.19
2018-12-07T01:56:51.014Z,1005.27
2018-12-07T01:57:51.042Z,1005.19
2018-12-07T01:58:51.064Z,1005.19
2018-12-07T01:59:51.089Z,1005.16
2018-12-07T02:00:51.116Z,1005.17
2018-12-07T02:01:51.144Z,1005.10
2018-12-07T02:02:51.170Z,1005.12
2018-12-07T02:03:51.198Z,1005.13
2018-12-07T02:04:51.221Z,1005.16
2018-12-07T02:05:51.247Z,1005.07
2018-12-07T02:06:51.277Z,1005.07
2018-12-07T02:07:51.297Z,1005.02
2018-12-07T02:08:51.322Z,1005.01
2018-12-07T02:09:51.348Z,1005.02
2018-12-07T02:10:51.373Z,1005.07
2018-12-07T02:11:51.403Z,1005.05
2018-12-07T02:12:51.426Z,1004.96
2018-12-07T02:13:51.450Z,1005.02
2018-12-07T02:14:51.479Z,1004.98
2018-12-07T02:15:51.505Z,1004.97
2018-12-07T02:16:51.534Z,1005.00
2018-12-07T02:17:51.557Z,1004.92
2018-12-07T02:18:51.583Z,1004.92
2018-12-07T02:19:51.606Z,1004.95
2018-12-07T02:20:51.634Z,1004.90
2018-12-07T02:21:51.658Z,1004.92
2018-12-07T02:22:51.684Z,1004.89
2018-12-07T02:23:51.710Z,1004.88
2018-12-07T02:24:51.742Z,1004.85
2018-12-07T02:25:51.764Z,1004.86
2018-12-07T02:26:51.790Z,1004.80
2018-12-07T02:27:51.813Z,1004.78
2018-12-07T02:28:51.841Z,1004.74
2018-12-07T02:29:51.864Z,1004.77
2018-12-07T02:30:51.893Z,1004.75
2018-12-07T02:31:51.919Z,1004.69
2018-12-07T02:32:51.947Z,1004.75
2018-12-07T02:33:51.970Z,1004.72
2018-12-07T02:34:52.006Z,1004.70
2018-12-07T02:35:52.023Z,1004.71
2018-12-07T02:36:52.045Z,1004.77
2018-12-07T02:37:52.069Z,1004.74
2018-12-07T02:38:52.096Z,1004.72
2018-12-07T02:39:52.123Z,1004.73
2018-12-07T02:40:52.147Z,1004.68
2018-12-07T02:41:52.175Z,1004.69
2018-12-07T02:42:52.200Z,1004.64
2018-12-07T02:43:52.226Z,1004.60
2018-12-07T02:44:52.253Z,1004.66
2018-12-07T02:45:52.281Z,1004.64
2018-12-07T02:46:52.303Z,1004.65
2018-12-07T02:47:52.329Z,1004.58
2018-12-07T02:48:52.361Z,1004.59
2018-12-07T02:49:52.382Z,1004.58
2018-12-07T02:50:52.408Z,1004.55
2018-12-07T02:51:52.434Z,1004.57
2018-12-07T02:52:52.459Z,1004.57
2018-12-07T02:53:52.485Z,1004.62
2018-12-07T02:54:52.511Z,1004.48
2018-12-07T02:55:52.537Z,1004.54
2018-12-07T02:56:52.562Z,1004.52
2018-12-07T02:57:52.588Z,1004.38
2018-12-07T02:58:52.614Z,1004.47
2018-12-07T02:59:52.640Z,1004.48
2018-12-07T03:00:52.662Z,1004.43
2018-12-07T03:01:52.692Z,1004.45
2018-12-07T03:02:52.719Z,1004.42
2018-12-07T03:03:52.741Z,1004.45
2018-12-07T03:04:52.769Z,1004.42
2018-12-07T03:05:52.794Z,1004.39
2018-12-07T03:06:52.820Z,1004.38
2018-12-07T03:07:52.844Z,1004.38
2018-12-07T03:08:52.871Z,1004.40
2018-12-07T03:09:52.895Z,1004.38
2018-12-07T03:10:52.921Z,1004.37
2018-12-07T03:11:52.947Z,1004.34
2018-12-07T03:12:52.973Z,1004.31
2018-12-07T03:13:52.998Z,1004.31
2018-12-07T03:14:53.024Z,1004.32
2018-12-07T03:15:53.052Z,1004.24
2018-12-07T03:16:53.074Z,1004.34
2018-12-07T03:17:53.108Z,1004.27
2018-12-07T03:18:53.133Z,1004.27
2018-12-07T03:19:53.156Z,1004.25
2018-12-07T03:20:53.178Z,1004.28
2018-12-07T03:21:53.208Z,1004.28
2018-12-07T03:22:53.233Z,1004.27
2018-12-07T03:23:53.258Z,1004.29
2018-12-07T03:24:53.285Z,1004.23
2018-12-07T03:25:53.310Z,1004.24
2018-12-07T03:26:53.336Z,1004.22
2018-12-07T03:27:53.367Z,1004.21
2018-12-07T03:28:53.387Z,1004.24
2018-12-07T03:29:53.414Z,1004.27
2018-12-07T03:30:53.437Z,1004.15
2018-12-07T03:31:53.466Z,1004.14
2018-12-07T03:32:53.490Z,1004.23
2018-12-07T03:33:53.523Z,1004.20
2018-12-07T03:34:53.552Z,1004.12
2018-12-07T03:35:53.567Z,1004.05
2018-12-07T03:36:53.591Z,1004.08
2018-12-07T03:37:53.623Z,1004.10
2018-12-07T03:38:53.643Z,1004.01
2018-12-07T03:39:53.671Z,1004.03
2018-12-07T03:40:53.698Z,1003.98
2018-12-07T03:41:53.726Z,1003.95
2018-12-07T03:42:53.747Z,1003.88
2018-12-07T03:43:53.775Z,1003.93
2018-12-07T03:44:53.800Z,1003.90
2018-12-07T03:45:53.828Z,1003.91
2018-12-07T03:46:53.858Z,1003.86
2018-12-07T03:47:53.877Z,1003.86
2018-12-07T03:48:53.904Z,1003.83
2018-12-07T03:49:53.930Z,1003.82
2018-12-07T03:50:53.954Z,1003.85
2018-12-07T03:51:53.983Z,1003.80
2018-12-07T03:52:54.008Z,1003.82
2018-12-07T03:53:54.034Z,1003.76
2018-12-07T03:54:54.060Z,1003.77
2018-12-07T03:55:54.088Z,1003.80
2018-12-07T03:56:54.110Z,1003.79
2018-12-07T03:57:54.138Z,1003.78
2018-12-07T03:58:54.164Z,1003.79
2018-12-07T03:59:54.185Z,1003.73
2018-12-07T04:00:54.213Z,1003.69
2018-12-07T04:01:54.240Z,1003.73
2018-12-07T04:02:54.266Z,1003.65
2018-12-07T04:03:54.293Z,1003.66
2018-12-07T04:04:54.315Z,1003.63
2018-12-07T04:05:54.343Z,1003.64
2018-12-07T04:06:54.425Z,1003.64
2018-12-07T04:07:54.393Z,1003.61
2018-12-07T04:08:54.434Z,1003.62
2018-12-07T04:09:54.446Z,1003.60
2018-12-07T04:10:54.474Z,1003.58
2018-12-07T04:11:54.496Z,1003.58
2018-12-07T04:12:54.523Z,1003.58
2018-12-07T04:13:54.547Z,1003.56
2018-12-07T04:14:54.575Z,1003.52
2018-12-07T04:15:54.602Z,1003.55
2018-12-07T04:16:54.624Z,1003.55
2018-12-07T04:17:54.659Z,1003.54
2018-12-07T04:18:54.679Z,1003.48
2018-12-07T04:19:54.702Z,1003.49
2018-12-07T04:20:54.728Z,1003.50
2018-12-07T04:21:54.755Z,1003.49
2018-12-07T04:22:54.930Z,1003.43
2018-12-07T04:23:54.837Z,1003.42
2018-12-07T04:24:54.837Z,1003.50
2018-12-07T04:25:54.859Z,1003.43
2018-12-07T04:26:54.892Z,1003.46
2018-12-07T04:27:54.911Z,1003.43
2018-12-07T04:28:54.936Z,1003.38
2018-12-07T04:29:54.960Z,1003.41
2018-12-07T04:30:54.987Z,1003.36
2018-12-07T04:31:55.014Z,1003.42
2018-12-07T04:32:55.044Z,1003.37
2018-12-07T04:33:55.064Z,1003.41
2018-12-07T04:34:55.089Z,1003.34
2018-12-07T04:35:55.116Z,1003.39
2018-12-07T04:36:55.140Z,1003.39
2018-12-07T04:37:55.166Z,1003.43
2018-12-07T04:38:55.198Z,1003.38
2018-12-07T04:39:55.228Z,1003.38
2018-12-07T04:40:55.244Z,1003.36
2018-12-07T04:41:55.271Z,1003.36
2018-12-07T04:42:55.298Z,1003.37
2018-12-07T04:43:55.325Z,1003.35
2018-12-07T04:44:55.347Z,1003.28
2018-12-07T04:45:55.373Z,1003.32
2018-12-07T04:46:55.402Z,1003.28
2018-12-07T04:47:55.429Z,1003.33
2018-12-07T04:48:55.455Z,1003.30
2018-12-07T04:49:55.478Z,1003.27
2018-12-07T04:50:55.504Z,1003.26
2018-12-07T04:51:55.532Z,1003.28
2018-12-07T04:52:55.560Z,1003.29
2018-12-07T04:53:55.582Z,1003.22
2018-12-07T04:54:55.606Z,1003.22
2018-12-07T04:55:55.637Z,1003.27
2018-12-07T04:56:55.660Z,1003.23
2018-12-07T04:57:55.686Z,1003.15
2018-12-07T04:58:55.710Z,1003.24
2018-12-07T04:59:55.739Z,1003.24
2018-12-07T05:00:55.767Z,1003.19
2018-12-07T05:01:55.791Z,1003.18
2018-12-07T05:02:55.816Z,1003.14
2018-12-07T05:03:55.838Z,1003.17
2018-12-07T05:04:55.864Z,1003.19
2018-12-07T05:05:55.890Z,1003.16
2018-12-07T05:06:55.917Z,1003.07
2018-12-07T05:07:55.947Z,1003.13
2018-12-07T05:08:55.970Z,1003.07
2018-12-07T05:09:55.997Z,1003.10
2018-12-07T05:10:56.023Z,1003.05
2018-12-07T05:11:56.049Z,1003.09
2018-12-07T05:12:56.077Z,1003.03
2018-12-07T05:13:56.101Z,1003.04
2018-12-07T05:14:56.132Z,1003.10
2018-12-07T05:15:56.161Z,1003.02
2018-12-07T05:16:56.179Z,1003.03
2018-12-07T05:17:56.221Z,1003.05
2018-12-07T05:18:56.235Z,1002.98
2018-12-07T05:19:56.254Z,1003.02
2018-12-07T05:20:56.279Z,1002.98
2018-12-07T05:21:56.305Z,1002.99
2018-12-07T05:22:56.333Z,1003.04
2018-12-07T05:23:56.360Z,1002.92
2018-12-07T05:24:56.381Z,1002.92
2018-12-07T05:25:56.409Z,1002.92
2018-12-07T05:26:56.437Z,1002.93
2018-12-07T05:27:56.463Z,1002.83
2018-12-07T05:28:56.488Z,1002.89
2018-12-07T05:29:56.516Z,1002.84
2018-12-07T05:30:56.543Z,1002.83
2018-12-07T05:31:56.567Z,1002.83
2018-12-07T05:32:56.589Z,1002.82
2018-12-07T05:33:56.669Z,1002.76
2018-12-07T05:34:56.643Z,1002.80
2018-12-07T05:35:56.669Z,1002.73
2018-12-07T05:36:56.697Z,1002.78
2018-12-07T05:37:56.720Z,1002.73
2018-12-07T05:38:56.778Z,1002.75
2018-12-07T05:39:56.777Z,1002.73
2018-12-07T05:40:56.800Z,1002.71
2018-12-07T05:41:56.825Z,1002.72
2018-12-07T05:42:56.850Z,1002.59
2018-12-07T05:43:56.878Z,1002.64
2018-12-07T05:44:56.904Z,1002.63
2018-12-07T05:45:56.933Z,1002.67
2018-12-07T05:46:56.955Z,1002.64
2018-12-07T05:47:56.981Z,1002.56
2018-12-07T05:48:57.007Z,1002.60
2018-12-07T05:49:57.034Z,1002.58
2018-12-07T05:50:57.058Z,1002.55
2018-12-07T05:51:57.088Z,1002.55
2018-12-07T05:52:57.111Z,1002.59
2018-12-07T05:53:57.135Z,1002.52
2018-12-07T05:54:57.163Z,1002.52
2018-12-07T05:55:57.188Z,1002.57
2018-12-07T05:56:57.215Z,1002.49
2018-12-07T05:57:57.238Z,1002.53
2018-12-07T05:58:57.267Z,1002.42
2018-12-07T05:59:57.294Z,1002.50
2018-12-07T06:00:57.318Z,1002.41
2018-12-07T06:01:57.346Z,1002.38
2018-12-07T06:02:57.370Z,1002.35
2018-12-07T06:03:57.395Z,1002.37
2018-12-07T06:04:57.423Z,1002.37
2018-12-07T06:05:58.162Z,1002.32
2018-12-07T06:06:57.477Z,1002.24
2018-12-07T06:07:57.501Z,1002.29
2018-12-07T06:08:57.529Z,1002.26
2018-12-07T06:09:57.553Z,1002.20
2018-12-07T06:10:57.576Z,1002.19
2018-12-07T06:11:57.603Z,1002.22
2018-12-07T06:12:57.629Z,1002.17
2018-12-07T06:13:57.657Z,1002.22
2018-12-07T06:14:57.681Z,1002.14
2018-12-07T06:15:57.720Z,1002.12
2018-12-07T06:16:57.734Z,1002.17
2018-12-07T06:17:57.761Z,1002.17
2018-12-07T06:18:57.787Z,1002.09
2018-12-07T06:19:57.814Z,1002.17
2018-12-07T06:20:57.836Z,1002.14
2018-12-07T06:21:57.865Z,1002.17
2018-12-07T06:22:57.888Z,1002.08
2018-12-07T06:23:57.917Z,1002.09
2018-12-07T06:24:57.938Z,1002.16
2018-12-07T06:25:57.967Z,1002.12
2018-12-07T06:26:57.994Z,1002.11
2018-12-07T06:27:58.021Z,1002.10
2018-12-07T06:28:58.044Z,1002.12
2018-12-07T06:29:58.072Z,1002.04
2018-12-07T06:30:58.098Z,1002.04
2018-12-07T06:31:58.124Z,1002.04
2018-12-07T06:32:58.151Z,1002.01
2018-12-07T06:33:58.174Z,1002.07
2018-12-07T06:34:58.200Z,1002.02
2018-12-07T06:35:58.230Z,1002.04
2018-12-07T06:36:58.252Z,1002.10
2018-12-07T06:37:58.277Z,1002.01
2018-12-07T06:38:58.305Z,1001.96
2018-12-07T06:39:58.330Z,1002.01
2018-12-07T06:40:58.357Z,1001.97
2018-12-07T06:41:58.381Z,1002.00
2018-12-07T06:42:58.409Z,1001.90
2018-12-07T06:43:58.436Z,1001.97
2018-12-07T06:44:58.459Z,1001.88
2018-12-07T06:45:58.486Z,1001.93
2018-12-07T06:46:58.514Z,1001.89
2018-12-07T06:47:58.540Z,1001.87
2018-12-07T06:48:58.562Z,1001.88
2018-12-07T06:49:58.589Z,1001.85
2018-12-07T06:50:58.617Z,1001.85
2018-12-07T06:51:58.644Z,1001.77
2018-12-07T06:52:58.666Z,1001.74
2018-12-07T06:53:58.693Z,1001.78
2018-12-07T06:54:58.723Z,1001.66
2018-12-07T06:55:58.748Z,1001.73
2018-12-07T06:56:58.771Z,1001.66
2018-12-07T06:57:58.799Z,1001.64
2018-12-07T06:58:58.826Z,1001.59
2018-12-07T06:59:58.849Z,1001.60
2018-12-07T07:00:58.876Z,1001.60
2018-12-07T07:01:58.903Z,1001.58
2018-12-07T07:02:58.929Z,1001.57
2018-12-07T07:03:58.953Z,1001.55
2018-12-07T07:04:58.979Z,1001.60
2018-12-07T07:05:59.007Z,1001.53
2018-12-07T07:06:59.033Z,1001.55
2018-12-07T07:07:59.057Z,1001.50
2018-12-07T07:08:59.085Z,1001.50
2018-12-07T07:09:59.110Z,1001.51
2018-12-07T07:10:59.137Z,1001.52
2018-12-07T07:11:59.163Z,1001.54
2018-12-07T07:12:59.188Z,1001.49
2018-12-07T07:13:59.214Z,1001.47
2018-12-07T07:14:59.238Z,1001.54
2018-12-07T07:15:59.266Z,1001.50
2018-12-07T07:16:59.290Z,1001.46
2018-12-07T07:17:59.319Z,1001.45
2018-12-07T07:18:59.342Z,1001.47
2018-12-07T07:19:59.370Z,1001.50
2018-12-07T07:20:59.396Z,1001.50
2018-12-07T07:21:59.422Z,1001.42
2018-12-07T07:22:59.446Z,1001.42
2018-12-07T07:23:59.473Z,1001.45
2018-12-07T07:24:59.499Z,1001.42
2018-12-07T07:25:59.524Z,1001.46
2018-12-07T07:26:59.552Z,1001.31
2018-12-07T07:27:59.579Z,1001.32
2018-12-07T07:28:59.607Z,1001.37
2018-12-07T07:29:59.630Z,1001.39
2018-12-07T07:30:59.654Z,1001.34
2018-12-07T07:31:59.680Z,1001.37
2018-12-07T07:32:59.705Z,1001.29
2018-12-07T07:33:59.732Z,1001.33
2018-12-07T07:34:59.759Z,1001.29
2018-12-07T07:35:59.785Z,1001.28
2018-12-07T07:36:59.808Z,1001.31
2018-12-07T07:37:59.838Z,1001.26
2018-12-07T07:38:59.861Z,1001.28
2018-12-07T07:39:59.889Z,1001.32
2018-12-07T07:40:59.912Z,1001.21
2018-12-07T07:41:59.940Z,1001.32
2018-12-07T07:42:59.967Z,1001.24
2018-12-07T07:43:59.992Z,1001.26
2018-12-07T07:45:00.016Z,1001.22
2018-12-07T07:46:00.044Z,1001.26
2018-12-07T07:47:00.068Z,1001.26
2018-12-07T07:48:00.095Z,1001.26
2018-12-07T07:49:00.123Z,1001.24
2018-12-07T07:50:00.153Z,1001.21
2018-12-07T07:51:00.174Z,1001.27
2018-12-07T07:52:00.200Z,1001.15
2018-12-07T07:53:00.225Z,1001.19
2018-12-07T07:54:00.251Z,1001.23
2018-12-07T07:55:00.276Z,1001.09
2018-12-07T07:56:00.302Z,1001.07
2018-12-07T07:57:00.330Z,1001.13
2018-12-07T07:58:00.355Z,1001.05
2018-12-07T07:59:00.381Z,1001.09
2018-12-07T08:00:00.405Z,1001.01
2018-12-07T08:01:00.432Z,1001.07
2018-12-07T08:02:00.460Z,1001.05
2018-12-07T08:03:00.488Z,1001.05
2018-12-07T08:04:00.511Z,1000.96
2018-12-07T08:05:00.536Z,1000.97
2018-12-07T08:06:00.560Z,1000.91
2018-12-07T08:07:00.586Z,1000.94
2018-12-07T08:08:00.615Z,1000.95
2018-12-07T08:09:00.640Z,1000.91
2018-12-07T08:10:00.664Z,1000.88
2018-12-07T08:11:00.692Z,1000.86
2018-12-07T08:12:00.718Z,1000.91
2018-12-07T08:13:00.743Z,1000.86
2018-12-07T08:14:00.776Z,1000.89
2018-12-07T08:15:00.795Z,1000.87
2018-12-07T08:16:00.822Z,1000.88
2018-12-07T08:17:00.847Z,1000.85
2018-12-07T08:18:00.871Z,1000.84
2018-12-07T08:19:00.897Z,1000.77
2018-12-07T08:20:00.925Z,1000.87
2018-12-07T08:21:00.950Z,1000.80
2018-12-07T08:22:02.781Z,1000.83
2018-12-07T08:23:01.004Z,1000.76
2018-12-07T08:24:01.027Z,1000.81
2018-12-07T08:25:01.052Z,1000.76
2018-12-07T08:26:01.078Z,1000.69
2018-12-07T08:27:01.104Z,1000.80
2018-12-07T08:28:01.140Z,1000.77
2018-12-07T08:29:01.157Z,1000.79
2018-12-07T08:30:01.183Z,1000.78
2018-12-07T08:31:01.214Z,1000.80
2018-12-07T08:32:01.234Z,1000.77
2018-12-07T08:33:01.261Z,1000.78
2018-12-07T08:34:01.289Z,1000.72
2018-12-07T08:35:01.313Z,1000.80
2018-12-07T08:36:01.339Z,1000.71
2018-12-07T08:37:01.366Z,1000.72
2018-12-07T08:38:01.391Z,1000.66
2018-12-07T08:39:01.415Z,1000.72
2018-12-07T08:40:01.444Z,1000.66
2018-12-07T08:41:01.466Z,1000.69
2018-12-07T08:42:06.674Z,1000.63
2018-12-07T08:43:01.518Z,1000.59
2018-12-07T08:44:01.550Z,1000.62
2018-12-07T08:45:01.572Z,1000.64
2018-12-07T08:46:01.598Z,1000.56
2018-12-07T08:47:01.624Z,1000.57
2018-12-07T08:48:01.648Z,1000.55
2018-12-07T08:49:01.674Z,1000.55
2018-12-07T08:50:01.706Z,1000.50
2018-12-07T08:51:01.725Z,1000.53
2018-12-07T08:52:01.752Z,1000.48
2018-12-07T08:53:01.778Z,1000.53
2018-12-07T08:54:01.804Z,1000.49
2018-12-07T08:55:01.834Z,1000.43
2018-12-07T08:56:01.856Z,1000.44
2018-12-07T08:57:01.883Z,1000.35
2018-12-07T08:58:01.909Z,1000.39
2018-12-07T08:59:01.935Z,1000.32
2018-12-07T09:00:02.043Z,1000.37
2018-12-07T09:01:01.986Z,1000.35
2018-12-07T09:02:02.012Z,1000.37
2018-12-07T09:03:02.038Z,1000.33
2018-12-07T09:04:02.063Z,1000.32
2018-12-07T09:05:02.087Z,1000.32
2018-12-07T09:06:02.113Z,1000.19
2018-12-07T09:07:02.141Z,1000.25
2018-12-07T09:08:02.167Z,1000.24
2018-12-07T09:09:02.193Z,1000.21
2018-12-07T09:10:02.218Z,1000.15
2018-12-07T09:11:02.245Z,1000.18
2018-12-07T09:12:02.271Z,1000.17
2018-12-07T09:13:02.293Z,1000.17
2018-12-07T09:14:02.321Z,1000.16
2018-12-07T09:15:02.347Z,1000.15
2018-12-07T09:16:02.374Z,1000.02
2018-12-07T09:17:02.400Z,1000.16
2018-12-07T09:18:02.426Z,1000.08
2018-12-07T09:19:02.457Z,1000.07
2018-12-07T09:20:02.475Z,1000.19
2018-12-07T09:21:02.503Z,1000.12
2018-12-07T09:22:02.529Z,1000.07
2018-12-07T09:23:02.557Z,1000.07
2018-12-07T09:24:02.580Z,1000.07
2018-12-07T09:25:02.604Z,999.98
2018-12-07T09:26:02.633Z,1000.00
2018-12-07T09:27:02.660Z,999.99
2018-12-07T09:28:02.682Z,999.98
2018-12-07T09:29:02.711Z,999.94
2018-12-07T09:30:02.742Z,999.92
2018-12-07T09:31:02.762Z,999.94
2018-12-07T09:32:02.786Z,999.89
2018-12-07T09:33:02.813Z,999.91
2018-12-07T09:34:02.839Z,999.93
2018-12-07T09:35:02.864Z,999.93
2018-12-07T09:36:02.890Z,999.89
2018-12-07T09:37:02.917Z,999.89
2018-12-07T09:38:02.943Z,999.93
2018-12-07T09:39:02.969Z,999.87
2018-12-07T09:40:03.000Z,999.90
2018-12-07T09:41:03.020Z,999.79
2018-12-07T09:42:03.044Z,999.83
2018-12-07T09:43:03.071Z,999.85
2018-12-07T09:44:03.099Z,999.90
2018-12-07T09:45:03.127Z,999.84
2018-12-07T09:46:03.151Z,999.86
2018-12-07T09:47:03.174Z,999.75
2018-12-07T09:48:03.205Z,999.77
2018-12-07T09:49:03.225Z,999.80
2018-12-07T09:50:03.253Z,999.81
2018-12-07T09:51:03.280Z,999.74
2018-12-07T09:52:03.310Z,999.75
2018-12-07T09:53:03.328Z,999.72
2018-12-07T09:54:03.357Z,999.72
2018-12-07T09:55:03.381Z,999.68
2018-12-07T09:56:03.408Z,999.82
2018-12-07T09:57:03.432Z,999.67
2018-12-07T09:58:03.458Z,999.59
2018-12-07T09:59:03.487Z,999.58
2018-12-07T10:00:03.510Z,999.58
2018-12-07T10:01:03.535Z,999.57
2018-12-07T10:02:03.562Z,999.54
2018-12-07T10:03:03.587Z,999.50
2018-12-07T10:04:03.616Z,999.45
2018-12-07T10:05:03.642Z,999.38
2018-12-07T10:06:03.668Z,999.44
2018-12-07T10:07:03.698Z,999.32
2018-12-07T10:08:03.719Z,999.36
2018-12-07T10:09:03.744Z,999.37
2018-12-07T10:10:03.770Z,999.35
2018-12-07T10:11:03.794Z,999.34
2018-12-07T10:12:03.821Z,999.32
2018-12-07T10:13:07.946Z,999.30
2018-12-07T10:14:03.875Z,999.32
2018-12-07T10:15:03.900Z,999.27
2018-12-07T10:16:03.924Z,999.15
2018-12-07T10:17:03.951Z,999.12
2018-12-07T10:18:04.060Z,999.18
2018-12-07T10:19:04.004Z,999.07
2018-12-07T10:20:04.028Z,999.16
2018-12-07T10:21:04.056Z,999.12
2018-12-07T10:22:04.081Z,999.03
2018-12-07T10:23:04.105Z,999.03
2018-12-07T10:24:04.131Z,999.02
2018-12-07T10:25:04.159Z,999.06
2018-12-07T10:26:04.189Z,998.97
2018-12-07T10:27:04.232Z,998.94
2018-12-07T10:28:04.236Z,998.93
2018-12-07T10:29:04.262Z,998.89
2018-12-07T10:30:04.288Z,998.78
2018-12-07T10:31:04.311Z,998.88
2018-12-07T10:32:04.340Z,998.79
2018-12-07T10:33:04.366Z,998.73
2018-12-07T10:34:04.390Z,998.84
2018-12-07T10:35:04.421Z,998.80
2018-12-07T10:36:04.445Z,998.84
2018-12-07T10:37:04.466Z,998.72
2018-12-07T10:38:04.495Z,998.74
2018-12-07T10:39:04.520Z,998.64
2018-12-07T10:40:04.545Z,998.66
2018-12-07T10:41:04.572Z,998.65
2018-12-07T10:42:04.597Z,998.60
2018-12-07T10:43:04.625Z,998.66
2018-12-07T10:44:04.651Z,998.57
2018-12-07T10:45:04.674Z,998.58
2018-12-07T10:46:04.700Z,998.51
2018-12-07T10:47:04.726Z,998.60
2018-12-07T10:48:04.753Z,998.46
2018-12-07T10:49:04.786Z,998.40
2018-12-07T10:50:04.803Z,998.45
2018-12-07T10:51:07.977Z,998.40
2018-12-07T10:52:04.856Z,998.37
2018-12-07T10:53:04.881Z,998.34
2018-12-07T10:54:04.907Z,998.27
2018-12-07T10:55:04.933Z,998.21
2018-12-07T10:56:04.960Z,998.18
2018-12-07T10:57:04.987Z,998.13
2018-12-07T10:58:05.013Z,998.12
2018-12-07T10:59:05.039Z,998.09
2018-12-07T11:00:05.065Z,998.13
2018-12-07T11:01:05.088Z,998.04
2018-12-07T11:02:05.116Z,998.10
2018-12-07T11:03:05.143Z,998.11
2018-12-07T11:04:05.167Z,997.97
2018-12-07T11:05:05.199Z,998.10
2018-12-07T11:06:05.218Z,998.07
2018-12-07T11:07:05.251Z,998.03
2018-12-07T11:08:05.270Z,998.06
2018-12-07T11:09:05.295Z,997.96
2018-12-07T11:10:05.321Z,997.93
2018-12-07T11:11:05.351Z,997.84
2018-12-07T11:12:05.376Z,997.79
2018-12-07T11:13:05.401Z,997.78
2018-12-07T11:14:05.435Z,997.78
2018-12-07T11:15:05.453Z,997.70
2018-12-07T11:16:05.479Z,997.68
2018-12-07T11:17:05.506Z,997.68
2018-12-07T11:18:05.529Z,997.64
2018-12-07T11:19:05.557Z,997.58
2018-12-07T11:20:05.581Z,997.58
2018-12-07T11:21:05.611Z,997.53
2018-12-07T11:22:05.635Z,997.56
2018-12-07T11:23:05.659Z,997.55
2018-12-07T11:24:05.685Z,997.59
2018-12-07T11:25:05.710Z,997.47
2018-12-07T11:26:05.739Z,997.27
2018-12-07T11:27:05.762Z,997.30
2018-12-07T11:28:05.791Z,997.36
2018-12-07T11:29:05.814Z,997.32
2018-12-07T11:30:05.841Z,997.39
2018-12-07T11:31:05.868Z,997.35
2018-12-07T11:32:05.892Z,997.24
2018-12-07T11:33:05.920Z,997.21
2018-12-07T11:34:05.943Z,997.23
2018-12-07T11:35:05.970Z,997.36
2018-12-07T11:36:08.205Z,997.20
2018-12-07T11:37:06.023Z,997.16
2018-12-07T11:38:06.050Z,997.24
2018-12-07T11:39:06.073Z,997.16
2018-12-07T11:40:06.102Z,997.25
2018-12-07T11:41:06.127Z,997.14
2018-12-07T11:42:06.154Z,997.06
2018-12-07T11:43:06.180Z,997.11
2018-12-07T11:44:06.206Z,997.09
2018-12-07T11:45:06.248Z,997.12
2018-12-07T11:46:06.257Z,997.08
2018-12-07T11:47:06.284Z,996.97
2018-12-07T11:48:06.308Z,997.00
2018-12-07T11:49:06.335Z,996.90
2018-12-07T11:50:06.359Z,996.79
2018-12-07T11:51:06.387Z,996.89
2018-12-07T11:52:06.411Z,996.85
2018-12-07T11:53:06.439Z,996.87
2018-12-07T11:54:06.463Z,996.89
2018-12-07T11:55:06.489Z,996.85
2018-12-07T11:56:06.515Z,996.89
2018-12-07T11:57:06.541Z,996.86
2018-12-07T11:58:06.565Z,996.79
2018-12-07T11:59:06.597Z,996.75
2018-12-07T12:00:06.619Z,996.69
2018-12-07T12:01:06.644Z,996.64
2018-12-07T12:02:06.673Z,996.61
2018-12-07T12:03:06.698Z,996.33
2018-12-07T12:04:06.725Z,996.51
2018-12-07T12:05:06.750Z,996.50
2018-12-07T12:06:06.776Z,996.52
2018-12-07T12:07:06.804Z,996.46
2018-12-07T12:08:06.827Z,996.40
2018-12-07T12:09:06.855Z,996.35
2018-12-07T12:10:06.880Z,996.40
2018-12-07T12:11:06.904Z,996.24